Time;durP1;ratioP1;P1;durP2;ratioP2;P2;SDS_P1;SDS_P2;PMS_P1;PMS_P2;Temp;Humidity;BMP_temperature;BMP_pressure;BME280_temperature;BME280_humidity;BME280_pressure;Samples;Min_cycle;Max_cycle;Signal;HPM_P1;HPM_P2
2022/04/05 00:00:44;;;;;;;0.45;0.40;;;;;;;-148.56;100.00;61375.16;4918697;28;20059;-29
2022/04/05 00:03:09;;;;;;;0.47;0.40;;;;;;;-148.56;100.00;61375.16;4897401;28;20086;-28
2022/04/05 00:05:34;;;;;;;0.40;0.40;;;;;;;-148.56;100.00;61375.16;4904463;28;22336;-27
2022/04/05 00:08:00;;;;;;;0.30;0.30;;;;;;;-148.56;100.00;61375.16;4902845;28;20035;-31
2022/04/05 00:10:26;;;;;;;3.22;0.60;;;;;;;-148.56;100.00;61375.16;4908411;28;20031;-32
2022/04/05 00:12:51;;;;;;;0.70;0.50;;;;;;;-148.56;100.00;61375.16;4902794;28;20027;-28
2022/04/05 00:15:17;;;;;;;0.22;0.22;;;;;;;-148.56;100.00;61375.16;4905059;28;20031;-30
2022/04/05 00:17:42;;;;;;;0.32;0.30;;;;;;;-148.56;100.00;61375.16;4910283;28;20023;-31
2022/04/05 00:20:08;;;;;;;0.68;0.40;;;;;;;-148.56;100.00;61375.16;4922839;28;20744;-28
2022/04/05 00:22:34;;;;;;;1.27;0.50;;;;;;;-148.56;100.00;61375.16;4919611;28;20079;-28
2022/04/05 00:25:00;;;;;;;0.90;0.50;;;;;;;-148.56;100.00;61375.16;4921644;28;20032;-30
2022/04/05 00:27:25;;;;;;;1.55;0.50;;;;;;;-148.56;100.00;61375.16;4915249;28;20067;-28
2022/04/05 00:29:51;;;;;;;0.73;0.40;;;;;;;-148.56;100.00;61375.16;4916880;28;20858;-29
2022/04/05 00:32:16;;;;;;;0.52;0.50;;;;;;;-148.56;100.00;61375.16;4917904;28;20090;-28
2022/04/05 00:34:41;;;;;;;1.15;0.50;;;;;;;-148.56;100.00;61375.16;4923684;28;20031;-28
2022/04/05 00:37:07;;;;;;;0.85;0.50;;;;;;;-148.56;100.00;61375.16;4923690;28;20433;-28
2022/04/05 00:39:32;;;;;;;0.50;0.50;;;;;;;-148.56;100.00;61375.16;4922853;28;20072;-30
2022/04/05 00:41:58;;;;;;;1.38;0.52;;;;;;;-148.56;100.00;61375.16;4916499;28;20253;-29
2022/04/05 00:44:23;;;;;;;0.73;0.40;;;;;;;-148.56;100.00;61375.16;4916449;28;21248;-32
2022/04/05 00:46:49;;;;;;;0.85;0.50;;;;;;;-148.56;100.00;61375.16;4934409;28;20071;-28
2022/04/05 00:49:26;;;;;;;0.40;0.40;;;;;;;-148.56;100.00;61375.16;4935341;28;20548;-29
2022/04/05 00:51:51;;;;;;;0.30;0.30;;;;;;;-148.56;100.00;61375.16;4935504;28;20039;-29
2022/04/05 00:54:17;;;;;;;0.70;0.50;;;;;;;-148.56;100.00;61375.16;4921661;28;20023;-27
2022/04/05 00:56:42;;;;;;;0.40;0.30;;;;;;;-148.56;100.00;61375.16;4919250;28;20753;-28
2022/04/05 00:59:07;;;;;;;0.70;0.50;;;;;;;-148.56;100.00;61375.16;4920822;28;20042;-28
2022/04/05 01:01:33;;;;;;;2.60;0.80;;;;;;;-148.56;100.00;61375.16;4923061;28;20042;-28
2022/04/05 01:03:58;;;;;;;0.63;0.30;;;;;;;-148.56;100.00;61375.16;4924401;28;20900;-29
2022/04/05 01:06:30;;;;;;;0.57;0.43;;;;;;;-148.56;100.00;61375.16;4921323;28;20039;-31
2022/04/05 01:08:56;;;;;;;0.38;0.25;;;;;;;-148.56;100.00;61375.16;4926074;28;20028;-27
2022/04/05 01:11:21;;;;;;;0.50;0.40;;;;;;;-148.56;100.00;61375.16;4920772;28;20042;-29
2022/04/05 01:13:47;;;;;;;0.35;0.35;;;;;;;-148.56;100.00;61375.16;4921152;28;20517;-29
2022/04/05 01:16:12;;;;;;;0.45;0.40;;;;;;;-148.56;100.00;61375.16;4907827;28;20027;-27
2022/04/05 01:18:38;;;;;;;0.40;0.40;;;;;;;-148.56;100.00;61375.16;4894285;28;20164;-29
2022/04/05 01:21:03;;;;;;;1.85;0.40;;;;;;;-148.56;100.00;61375.16;4894566;28;20039;-27
2022/04/05 01:23:29;;;;;;;1.83;0.60;;;;;;;-148.56;100.00;61375.16;4892298;28;20770;-29
2022/04/05 01:25:56;;;;;;;3.35;1.00;;;;;;;-148.56;100.00;61375.16;4889505;28;20061;-30
2022/04/05 01:28:22;;;;;;;4.40;0.80;;;;;;;-148.56;100.00;61375.16;4894947;28;20070;-29
2022/04/05 01:30:47;;;;;;;1.27;0.52;;;;;;;-148.56;100.00;61375.16;4893448;28;20038;-29
2022/04/05 01:33:13;;;;;;;2.58;0.60;;;;;;;-148.56;100.00;61375.16;4896151;28;20038;-30
2022/04/05 01:35:39;;;;;;;1.33;0.63;;;;;;;-148.56;100.00;61375.16;4894876;28;21282;-26
2022/04/05 01:38:06;;;;;;;0.43;0.43;;;;;;;-148.56;100.00;61375.16;4894545;28;20077;-30
2022/04/05 01:40:31;;;;;;;1.30;0.63;;;;;;;-148.56;100.00;61375.16;4894677;28;20042;-31
2022/04/05 01:42:57;;;;;;;0.30;0.30;;;;;;;-148.56;100.00;61375.16;4891194;28;20034;-27
2022/04/05 01:45:22;;;;;;;1.33;0.50;;;;;;;-148.56;100.00;61375.16;4889789;28;20094;-29
2022/04/05 01:47:48;;;;;;;1.05;0.60;;;;;;;-148.56;100.00;61375.16;4897571;28;20557;-28
2022/04/05 01:50:13;;;;;;;0.70;0.50;;;;;;;-148.56;100.00;61375.16;4896337;28;20106;-26
2022/04/05 01:52:38;;;;;;;1.30;0.60;;;;;;;-148.56;100.00;61375.16;4891749;28;20038;-29
2022/04/05 01:55:05;;;;;;;2.72;0.47;;;;;;;-148.56;100.00;61375.16;4889489;28;20038;-28
2022/04/05 01:57:31;;;;;;;1.17;0.50;;;;;;;-148.56;100.00;61375.16;4889175;28;20034;-28
2022/04/05 01:59:56;;;;;;;0.88;0.52;;;;;;;-148.56;100.00;61375.16;4891472;28;20653;-28
2022/04/05 02:02:21;;;;;;;0.50;0.50;;;;;;;-148.56;100.00;61375.16;4889822;28;20375;-28
2022/04/05 02:04:47;;;;;;;2.15;0.57;;;;;;;-148.56;100.00;61375.16;4890171;28;20027;-28
2022/04/05 02:07:16;;;;;;;0.40;0.30;;;;;;;-148.56;100.00;61375.16;4890814;28;20031;-30
2022/04/05 02:09:42;;;;;;;0.70;0.50;;;;;;;-148.56;100.00;61375.16;4892414;28;20035;-30
2022/04/05 02:12:09;;;;;;;0.52;0.40;;;;;;;-148.56;100.00;61375.16;4892075;28;20078;-29
2022/04/05 02:14:35;;;;;;;1.00;0.57;;;;;;;-148.56;100.00;61375.16;4894255;28;20078;-31
2022/04/05 02:17:00;;;;;;;1.30;0.50;;;;;;;-148.56;100.00;61375.16;4910359;28;20027;-29
2022/04/05 02:19:26;;;;;;;2.17;0.50;;;;;;;-148.56;100.00;61375.16;4921459;28;20038;-30
2022/04/05 02:21:51;;;;;;;0.50;0.50;;;;;;;-148.56;100.00;61375.16;4922564;28;20482;-30
2022/04/05 02:24:17;;;;;;;1.95;0.50;;;;;;;-148.56;100.00;61375.16;4919207;28;20119;-30
2022/04/05 02:26:43;;;;;;;1.23;0.50;;;;;;;-148.56;100.00;61375.16;4919934;28;20034;-30
2022/04/05 02:29:08;;;;;;;0.50;0.50;;;;;;;-148.56;100.00;61375.16;4920381;28;20617;-31
2022/04/05 02:31:34;;;;;;;0.95;0.40;;;;;;;-148.56;100.00;61375.16;4926372;28;20032;-29
2022/04/05 02:34:00;;;;;;;4.00;0.52;;;;;;;-148.56;100.00;61375.16;4926097;28;20031;-29
2022/04/05 02:36:26;;;;;;;0.88;0.60;;;;;;;-148.56;100.00;61375.16;4920876;28;20114;-28
2022/04/05 02:38:51;;;;;;;1.08;0.70;;;;;;;-148.56;100.00;61375.16;4926508;28;20057;-28
2022/04/05 02:41:16;;;;;;;0.75;0.60;;;;;;;-148.56;100.00;61375.16;4932934;28;20039;-28
2022/04/05 02:43:42;;;;;;;0.73;0.50;;;;;;;-148.56;100.00;61375.16;4926623;28;20031;-31
2022/04/05 02:46:08;;;;;;;0.50;0.40;;;;;;;-148.56;100.00;61375.16;4928242;28;20044;-31
2022/04/05 02:48:34;;;;;;;0.85;0.40;;;;;;;-148.56;100.00;61375.16;4930095;28;20030;-30
2022/04/05 02:50:59;;;;;;;0.93;0.50;;;;;;;-148.56;100.00;61375.16;4927874;28;20051;-28
2022/04/05 02:53:25;;;;;;;0.57;0.47;;;;;;;-148.56;100.00;61375.16;4929157;28;20474;-28
2022/04/05 02:55:50;;;;;;;0.30;0.30;;;;;;;-148.56;100.00;61375.16;4929130;28;20039;-28
2022/04/05 02:58:15;;;;;;;1.38;0.30;;;;;;;-148.56;100.00;61375.16;4929014;28;20027;-29
2022/04/05 03:00:41;;;;;;;0.57;0.40;;;;;;;-148.56;100.00;61375.16;4924153;28;20534;-29
2022/04/05 03:03:06;;;;;;;0.40;0.30;;;;;;;-148.56;100.00;61375.16;4930364;28;20043;-31
2022/04/05 03:05:32;;;;;;;2.20;0.50;;;;;;;-148.56;100.00;61375.16;4930990;28;20647;-30
2022/04/05 03:07:57;;;;;;;0.60;0.50;;;;;;;-148.56;100.00;61375.16;4922674;28;20034;-30
2022/04/05 03:10:22;;;;;;;0.90;0.73;;;;;;;-148.56;100.00;61375.16;4941732;28;20439;-31
2022/04/05 03:12:48;;;;;;;2.47;0.50;;;;;;;-148.56;100.00;61375.16;4923323;28;20113;-30
2022/04/05 03:15:13;;;;;;;0.38;0.38;;;;;;;-148.56;100.00;61375.16;4925465;28;20031;-29
2022/04/05 03:17:44;;;;;;;1.88;0.40;;;;;;;-148.56;100.00;61375.16;4918633;28;20110;-29
2022/04/05 03:20:12;;;;;;;0.50;0.30;;;;;;;-148.56;100.00;61375.16;4920887;28;21713;-28
2022/04/05 03:22:39;;;;;;;1.65;0.55;;;;;;;-148.56;100.00;61375.16;4918992;28;20046;-28
2022/04/05 03:25:05;;;;;;;0.88;0.50;;;;;;;-148.56;100.00;61375.16;4922505;28;20106;-28
2022/04/05 03:27:30;;;;;;;1.23;0.40;;;;;;;-148.56;100.00;61375.16;4926436;28;21037;-28
2022/04/05 03:29:55;;;;;;;0.77;0.47;;;;;;;-148.56;100.00;61375.16;4929449;28;20063;-28
2022/04/05 03:32:21;;;;;;;1.85;0.52;;;;;;;-148.56;100.00;61375.16;4926540;28;20034;-32
2022/04/05 03:34:49;;;;;;;0.30;0.30;;;;;;;-148.56;100.00;61375.16;4927735;28;20027;-29
2022/04/05 03:37:15;;;;;;;0.40;0.40;;;;;;;-148.56;100.00;61375.16;4926936;28;20051;-28
2022/04/05 03:39:40;;;;;;;0.40;0.40;;;;;;;-148.56;100.00;61375.16;4927283;28;20065;-29
2022/04/05 03:42:06;;;;;;;3.63;0.70;;;;;;;-148.56;100.00;61375.16;4923613;28;20062;-28
2022/04/05 03:44:31;;;;;;;2.28;0.40;;;;;;;-148.56;100.00;61375.16;4917542;28;21976;-27
2022/04/05 03:46:57;;;;;;;1.50;0.50;;;;;;;-148.56;100.00;61375.16;4919980;28;20162;-29
2022/04/05 03:49:23;;;;;;;3.08;0.40;;;;;;;-148.56;100.00;61375.16;4921448;28;20673;-29
2022/04/05 03:51:48;;;;;;;1.23;0.50;;;;;;;-148.56;100.00;61375.16;4916307;28;20054;-28
2022/04/05 03:54:13;;;;;;;0.38;0.38;;;;;;;-148.56;100.00;61375.16;4918516;28;20114;-27
2022/04/05 03:56:39;;;;;;;0.68;0.50;;;;;;;-148.56;100.00;61375.16;4920579;28;20042;-29
2022/04/05 03:59:04;;;;;;;0.40;0.40;;;;;;;-148.56;100.00;61375.16;4914760;28;21513;-29
2022/04/05 04:01:30;;;;;;;12.32;1.38;;;;;;;-148.56;100.00;61375.16;4918712;28;20094;-30
2022/04/05 04:03:55;;;;;;;2.63;0.80;;;;;;;-148.56;100.00;61375.16;4919763;28;20095;-26
2022/04/05 04:06:20;;;;;;;0.80;0.68;;;;;;;-148.56;100.00;61375.16;4918000;28;20138;-28
2022/04/05 04:08:46;;;;;;;0.65;0.50;;;;;;;-148.56;100.00;61375.16;4921282;28;20738;-27
2022/04/05 04:11:11;;;;;;;0.63;0.55;;;;;;;-148.56;100.00;61375.16;4919932;28;20043;-30
2022/04/05 04:13:37;;;;;;;2.40;0.50;;;;;;;-148.56;100.00;61375.16;4920505;28;20113;-28
2022/04/05 04:16:04;;;;;;;1.27;0.52;;;;;;;-148.56;100.00;61375.16;4909591;28;20047;-28
2022/04/05 04:18:30;;;;;;;0.75;0.40;;;;;;;-148.56;100.00;61375.16;4922060;28;20038;-30
2022/04/05 04:20:55;;;;;;;1.50;0.60;;;;;;;-148.56;100.00;61375.16;4918609;28;20039;-29
2022/04/05 04:23:21;;;;;;;0.55;0.50;;;;;;;-148.56;100.00;61375.16;4928017;28;20457;-30
2022/04/05 04:25:46;;;;;;;0.30;0.30;;;;;;;-148.56;100.00;61375.16;4927545;28;20039;-27
2022/04/05 04:28:11;;;;;;;1.35;0.60;;;;;;;-148.56;100.00;61375.16;4923578;28;20035;-32
2022/04/05 04:30:38;;;;;;;3.40;0.60;;;;;;;-148.56;100.00;61375.16;4915870;28;21920;-28
2022/04/05 04:33:03;;;;;;;1.17;0.60;;;;;;;-148.56;100.00;61375.16;4930659;28;20054;-29
2022/04/05 04:35:29;;;;;;;0.75;0.50;;;;;;;-148.56;100.00;61375.16;4930943;28;20036;-29
2022/04/05 04:37:54;;;;;;;0.55;0.45;;;;;;;-148.56;100.00;61375.16;4928903;28;20062;-30
2022/04/05 04:40:20;;;;;;;1.98;0.47;;;;;;;-148.56;100.00;61375.16;4924512;28;20035;-31
2022/04/05 04:42:45;;;;;;;0.63;0.50;;;;;;;-148.56;100.00;61375.16;4931053;28;20114;-28
2022/04/05 04:45:11;;;;;;;0.88;0.50;;;;;;;-148.56;100.00;61375.16;4930416;28;20651;-31
2022/04/05 04:47:37;;;;;;;0.50;0.40;;;;;;;-148.56;100.00;61375.16;4931351;28;20785;-29
2022/04/05 04:50:02;;;;;;;0.52;0.45;;;;;;;-148.56;100.00;61375.16;4926512;28;20036;-28
2022/04/05 04:52:28;;;;;;;0.40;0.40;;;;;;;-148.56;100.00;61375.16;4929096;28;20035;-28
2022/04/05 04:54:53;;;;;;;0.82;0.50;;;;;;;-148.56;100.00;61375.16;4934034;28;20027;-30
2022/04/05 04:57:19;;;;;;;0.52;0.40;;;;;;;-148.56;100.00;61375.16;4925901;28;20039;-29
2022/04/05 04:59:44;;;;;;;0.85;0.50;;;;;;;-148.56;100.00;61375.16;4928223;28;20987;-29
2022/04/05 05:02:10;;;;;;;0.50;0.45;;;;;;;-148.56;100.00;61375.16;4929320;28;20035;-31
2022/04/05 05:04:35;;;;;;;2.65;0.50;;;;;;;-148.56;100.00;61375.16;4926549;28;20253;-29
2022/04/05 05:07:00;;;;;;;0.63;0.40;;;;;;;-148.56;100.00;61375.16;4934902;28;20034;-31
2022/04/05 05:09:26;;;;;;;0.88;0.47;;;;;;;-148.56;100.00;61375.16;4928975;28;20539;-29
2022/04/05 05:11:51;;;;;;;1.67;0.40;;;;;;;-148.56;100.00;61375.16;4926691;28;20035;-30
2022/04/05 05:14:16;;;;;;;0.95;0.40;;;;;;;-148.56;100.00;61375.16;4927833;28;20036;-32
2022/04/05 05:16:42;;;;;;;0.50;0.40;;;;;;;-148.56;100.00;61375.16;4928743;28;20534;-31
2022/04/05 05:19:08;;;;;;;1.00;0.43;;;;;;;-148.56;100.00;61375.16;4933122;28;20043;-29
2022/04/05 05:21:33;;;;;;;3.60;0.40;;;;;;;-148.56;100.00;61375.16;4926224;28;20042;-28
2022/04/05 05:23:58;;;;;;;1.65;0.50;;;;;;;-148.56;100.00;61375.16;4927355;28;20035;-29
2022/04/05 05:26:24;;;;;;;0.20;0.20;;;;;;;-148.56;100.00;61375.16;4927561;28;20431;-29
2022/04/05 05:28:49;;;;;;;0.32;0.32;;;;;;;-148.56;100.00;61375.16;4932896;28;20145;-30
2022/04/05 05:31:15;;;;;;;1.65;0.47;;;;;;;-148.56;100.00;61375.16;4929877;28;20035;-28
2022/04/05 05:33:40;;;;;;;0.63;0.40;;;;;;;-148.56;100.00;61375.16;4930644;28;20036;-29
2022/04/05 05:36:06;;;;;;;0.43;0.40;;;;;;;-148.56;100.00;61375.16;4923418;28;20027;-28
2022/04/05 05:38:31;;;;;;;1.92;0.47;;;;;;;-148.56;100.00;61375.16;4924882;28;20093;-27
2022/04/05 05:40:57;;;;;;;0.55;0.40;;;;;;;-148.56;100.00;61375.16;4920403;28;20078;-29
2022/04/05 05:43:23;;;;;;;0.40;0.40;;;;;;;-148.56;100.00;61375.16;4920562;28;20557;-29
2022/04/05 05:45:48;;;;;;;0.55;0.40;;;;;;;-148.56;100.00;61375.16;4923070;28;20087;-30
2022/04/05 05:48:14;;;;;;;0.95;0.50;;;;;;;-148.56;100.00;61375.16;4925163;28;20059;-27
2022/04/05 05:50:39;;;;;;;0.57;0.38;;;;;;;-148.56;100.00;61375.16;4921921;28;20050;-26
2022/04/05 05:53:05;;;;;;;1.05;0.32;;;;;;;-148.56;100.00;61375.16;4925483;28;20031;-29
2022/04/05 05:55:30;;;;;;;0.35;0.35;;;;;;;-148.56;100.00;61375.16;4922880;28;20035;-28
2022/04/05 05:57:56;;;;;;;0.90;0.50;;;;;;;-148.56;100.00;61375.16;4926557;28;20027;-29
2022/04/05 06:00:21;;;;;;;0.35;0.25;;;;;;;-148.56;100.00;61375.16;4920997;28;20042;-30
2022/04/05 06:02:48;;;;;;;0.55;0.30;;;;;;;-148.56;100.00;61375.16;4924485;28;20038;-30
2022/04/05 06:05:13;;;;;;;1.42;0.38;;;;;;;-148.56;100.00;61375.16;4929353;28;20063;-30
2022/04/05 06:07:41;;;;;;;0.45;0.30;;;;;;;-148.56;100.00;61375.16;4929301;28;20617;-29
2022/04/05 06:10:07;;;;;;;1.65;0.45;;;;;;;-148.56;100.00;61375.16;4926183;28;20032;-31
2022/04/05 06:12:32;;;;;;;1.13;0.52;;;;;;;-148.56;100.00;61375.16;4927844;28;20091;-28
2022/04/05 06:14:58;;;;;;;1.08;0.60;;;;;;;-148.56;100.00;61375.16;4925537;28;20067;-29
2022/04/05 06:17:24;;;;;;;1.27;0.40;;;;;;;-148.56;100.00;61375.16;4924182;28;20090;-29
2022/04/05 06:19:53;;;;;;;0.30;0.30;;;;;;;-148.56;100.00;61375.16;4927018;28;20039;-30
2022/04/05 06:22:18;;;;;;;2.92;0.50;;;;;;;-148.56;100.00;61375.16;4910903;28;20102;-27
2022/04/05 06:24:44;;;;;;;1.25;0.55;;;;;;;-148.56;100.00;61375.16;4925070;28;20521;-27
2022/04/05 06:27:09;;;;;;;8.40;1.70;;;;;;;-148.56;100.00;61375.16;4929024;28;20039;-27
2022/04/05 06:29:34;;;;;;;4.47;1.10;;;;;;;-148.56;100.00;61375.16;4925766;28;20031;-29
2022/04/05 06:32:01;;;;;;;6.00;1.40;;;;;;;-148.56;100.00;61375.16;4930743;28;20688;-28
2022/04/05 06:34:26;;;;;;;6.30;1.83;;;;;;;-148.56;100.00;61375.16;4914339;28;20036;-29
2022/04/05 06:36:53;;;;;;;8.93;2.10;;;;;;;-148.56;100.00;61375.16;4919593;28;20046;-29
2022/04/05 06:39:19;;;;;;;5.13;1.73;;;;;;;-148.56;100.00;61375.16;4921701;28;20024;-33
2022/04/05 06:41:44;;;;;;;8.68;1.83;;;;;;;-148.56;100.00;61375.16;4920076;28;20696;-24
2022/04/05 06:44:09;;;;;;;4.97;1.83;;;;;;;-148.56;100.00;61375.16;4928764;28;20031;-30
2022/04/05 06:46:35;;;;;;;6.13;1.67;;;;;;;-148.56;100.00;61375.16;4915080;28;20422;-31
2022/04/05 06:49:00;;;;;;;4.80;1.88;;;;;;;-148.56;100.00;61375.16;4922766;28;20030;-27
2022/04/05 06:51:26;;;;;;;4.13;1.73;;;;;;;-148.56;100.00;61375.16;4924959;28;20591;-29
2022/04/05 06:53:51;;;;;;;4.63;1.60;;;;;;;-148.56;100.00;61375.16;4927303;28;20031;-29
2022/04/05 06:56:21;;;;;;;7.63;1.80;;;;;;;-148.56;100.00;61375.16;4927235;28;20030;-32
2022/04/05 06:58:47;;;;;;;7.18;1.98;;;;;;;-148.56;100.00;61375.16;4925386;28;20027;-28
2022/04/05 07:01:12;;;;;;;4.60;1.65;;;;;;;-148.56;100.00;61375.16;4925588;28;20031;-30
2022/04/05 07:03:38;;;;;;;5.22;1.95;;;;;;;-148.56;100.00;61375.16;4926263;28;20607;-31
2022/04/05 07:06:03;;;;;;;4.30;1.67;;;;;;;-148.56;100.00;61375.16;4927915;28;20031;-28
2022/04/05 07:08:28;;;;;;;4.15;1.77;;;;;;;-148.56;100.00;61375.16;4925673;28;20032;-28
2022/04/05 07:10:54;;;;;;;7.57;2.05;;;;;;;-148.56;100.00;61375.16;4923513;28;20375;-33
2022/04/05 07:13:19;;;;;;;4.13;1.90;;;;;;;-148.56;100.00;61375.16;4918842;28;20042;-27
2022/04/05 07:15:45;;;;;;;6.88;1.73;;;;;;;-148.56;100.00;61375.16;4921274;28;20049;-31
2022/04/05 07:18:10;;;;;;;11.00;2.40;;;;;;;-148.56;100.00;61375.16;4920428;28;20031;-29
2022/04/05 07:20:37;;;;;;;3.78;1.83;;;;;;;-148.56;100.00;61375.16;4918531;28;20035;-31
2022/04/05 07:23:03;;;;;;;5.18;2.30;;;;;;;-148.56;100.00;61375.16;4918835;28;20124;-30
2022/04/05 07:25:28;;;;;;;3.85;1.85;;;;;;;-148.56;100.00;61375.16;4917642;28;20031;-29
2022/04/05 07:27:54;;;;;;;3.60;1.80;;;;;;;-148.56;100.00;61375.16;4919547;28;20396;-31
2022/04/05 07:30:19;;;;;;;4.50;2.00;;;;;;;-148.56;100.00;61375.16;4937275;28;20508;-29
2022/04/05 07:32:45;;;;;;;3.33;1.83;;;;;;;-148.56;100.00;61375.16;4924602;28;20988;-27
2022/04/05 07:35:11;;;;;;;9.43;1.92;;;;;;;-148.56;100.00;61375.16;4915896;28;20114;-27
2022/04/05 07:37:37;;;;;;;5.82;1.92;;;;;;;-148.56;100.00;61375.16;4920466;28;20023;-28
2022/04/05 07:40:05;;;;;;;3.72;1.60;;;;;;;-148.56;100.00;61375.16;4916884;28;20588;-28
2022/04/05 07:42:31;;;;;;;5.22;1.58;;;;;;;-148.56;100.00;61375.16;4917751;28;20093;-27
2022/04/05 07:44:56;;;;;;;5.15;1.77;;;;;;;-148.56;100.00;61375.16;4921766;28;20039;-28
2022/04/05 07:47:22;;;;;;;5.38;2.03;;;;;;;-148.56;100.00;61375.16;4918444;28;20040;-29
2022/04/05 07:49:47;;;;;;;4.22;1.80;;;;;;;-148.56;100.00;61375.16;4918364;28;20038;-29
2022/04/05 07:52:14;;;;;;;6.15;1.88;;;;;;;-148.56;100.00;61375.16;4914788;28;20023;-30
2022/04/05 07:54:40;;;;;;;4.22;1.80;;;;;;;-148.56;100.00;61375.16;4915175;28;20056;-29
2022/04/05 07:57:08;;;;;;;3.20;1.77;;;;;;;-148.56;100.00;61375.16;4918600;28;20629;-29
2022/04/05 07:59:34;;;;;;;4.35;1.70;;;;;;;-148.56;100.00;61375.16;4915249;28;20031;-27
2022/04/05 08:01:59;;;;;;;4.55;2.13;;;;;;;-148.56;100.00;61375.16;4914588;28;20091;-28
2022/04/05 08:04:25;;;;;;;3.13;1.92;;;;;;;-148.56;100.00;61375.16;4917421;28;20035;-29
2022/04/05 08:06:50;;;;;;;4.22;1.80;;;;;;;-148.56;100.00;61375.16;4921820;28;20034;-29
2022/04/05 08:10:14;;;;;;;6.13;1.75;;;;;;;-148.56;100.00;61375.16;4923472;28;20031;-30
2022/04/05 08:13:38;;;;;;;3.45;1.67;;;;;;;-148.56;100.00;61375.16;4917327;28;21069;-30
2022/04/05 08:17:03;;;;;;;3.15;1.73;;;;;;;-148.56;100.00;61375.16;4917013;28;21307;-27
2022/04/05 08:20:27;;;;;;;6.45;3.30;;;;;;;-148.56;100.00;61375.16;4924622;28;21009;-28
2022/04/05 08:23:52;;;;;;;11.52;3.15;;;;;;;-148.56;100.00;61375.16;4930466;28;20437;-28
2022/04/05 08:27:16;;;;;;;5.15;2.65;;;;;;;-148.56;100.00;61375.16;4926818;28;20834;-30
2022/04/05 08:30:40;;;;;;;3.40;2.28;;;;;;;-148.56;100.00;61375.16;4918572;28;20074;-29
2022/04/05 08:34:04;;;;;;;4.50;1.90;;;;;;;-148.56;100.00;61375.16;4923206;28;20045;-30
2022/04/05 08:37:27;;;;;;;3.25;1.67;;;;;;;-148.56;100.00;61375.16;4928689;28;20039;-30
2022/04/05 08:40:51;;;;;;;3.05;1.83;;;;;;;-148.56;100.00;61375.16;4922438;28;20057;-29
2022/04/05 08:44:18;;;;;;;4.50;2.03;;;;;;;-148.56;100.00;61375.16;4938461;28;20236;-32
2022/04/05 08:47:48;;;;;;;4.40;1.90;;;;;;;-148.56;100.00;61375.16;4933418;28;20683;-28
2022/04/05 08:51:16;;;;;;;5.85;2.08;;;;;;;-148.56;100.00;61375.16;4937479;28;20819;-30
2022/04/05 08:54:40;;;;;;;3.72;1.77;;;;;;;-148.56;100.00;61375.16;4923926;28;20035;-30
2022/04/05 08:58:04;;;;;;;14.23;2.00;;;;;;;-148.56;100.00;61375.16;4928704;28;20046;-33
2022/04/05 09:01:29;;;;;;;10.02;2.60;;;;;;;-148.56;100.00;61375.16;4923605;28;20114;-30
2022/04/05 09:04:54;;;;;;;8.27;3.17;;;;;;;-148.56;100.00;61375.16;4928748;28;20038;-31
2022/04/05 09:08:25;;;;;;;9.10;2.50;;;;;;;-148.56;100.00;61375.16;4931162;28;20122;-28
2022/04/05 09:12:01;;;;;;;6.28;2.80;;;;;;;-148.56;100.00;61375.16;4922700;28;20035;-29
2022/04/05 09:15:26;;;;;;;5.45;2.45;;;;;;;-148.56;100.00;61375.16;4922156;28;20043;-28
2022/04/05 09:18:50;;;;;;;8.02;2.75;;;;;;;-148.56;100.00;61375.16;4924669;28;20118;-31
2022/04/05 09:22:14;;;;;;;5.22;2.28;;;;;;;-148.56;100.00;61375.16;4924187;28;20041;-30
2022/04/05 09:25:45;;;;;;;9.52;2.58;;;;;;;-148.56;100.00;61375.16;4927172;28;20037;-31
2022/04/05 09:29:09;;;;;;;10.02;2.28;;;;;;;-148.56;100.00;61375.16;4923431;28;20479;-30
2022/04/05 09:31:47;;;;;;;8.00;2.00;;;;;;;25.97;25.67;96006.75;4925464;28;20093;-29
2022/04/05 09:34:13;;;;;;;5.97;2.28;;;;;;;25.98;25.35;96011.09;4924703;28;20085;-29
2022/04/05 09:36:40;;;;;;;6.82;2.38;;;;;;;26.01;25.28;96005.63;4918930;28;20054;-32
2022/04/05 09:39:16;;;;;;;5.95;2.28;;;;;;;26.03;25.19;96001.13;4919114;28;20066;-30
2022/04/05 09:41:41;;;;;;;4.30;1.90;;;;;;;26.06;25.29;96000.94;4921650;28;20035;-30
2022/04/05 09:44:07;;;;;;;4.35;1.90;;;;;;;26.08;25.37;96004.28;4922171;28;20086;-30
2022/04/05 09:46:33;;;;;;;4.03;2.10;;;;;;;26.10;25.38;96001.56;4927168;28;20041;-30
2022/04/05 09:49:01;;;;;;;17.73;5.60;;;;;;;26.13;25.53;96000.50;4925227;28;20031;-29
2022/04/05 09:51:27;;;;;;;14.88;5.18;;;;;;;26.14;25.40;96002.19;4925623;28;20039;-29
2022/04/05 09:53:55;;;;;;;10.13;4.10;;;;;;;26.14;25.42;95996.94;4925845;28;20032;-33
2022/04/05 09:56:26;;;;;;;8.65;3.38;;;;;;;26.14;25.39;96000.41;4924701;28;20039;-29
2022/04/05 09:58:56;;;;;;;7.13;2.75;;;;;;;26.14;25.10;96007.44;4926753;28;20048;-30
2022/04/05 10:01:25;;;;;;;8.80;2.90;;;;;;;26.14;25.28;96013.53;4914745;28;20036;-31
2022/04/05 10:04:17;;;;;;;8.10;3.03;;;;;;;26.14;25.16;96012.69;4937331;28;20044;-32
2022/04/05 10:06:46;;;;;;;5.72;2.30;;;;;;;26.14;25.28;96012.69;4920030;28;20050;-31
2022/04/05 10:09:18;;;;;;;7.00;2.75;;;;;;;26.14;25.13;96020.56;4921978;28;20047;-29
2022/04/05 10:11:44;;;;;;;3.22;1.98;;;;;;;26.14;24.98;96017.94;4917235;28;20039;-28
2022/04/05 10:14:11;;;;;;;4.35;2.38;;;;;;;26.12;24.97;96019.84;4924112;28;20058;-29
2022/04/05 10:16:37;;;;;;;3.28;2.13;;;;;;;26.10;24.88;96012.88;4920322;28;20034;-27
2022/04/05 10:19:04;;;;;;;4.82;2.10;;;;;;;26.09;24.87;96026.97;4921163;28;20891;-29
2022/04/05 10:21:30;;;;;;;4.80;2.10;;;;;;;26.07;24.78;96022.75;4922486;28;20027;-30
2022/04/05 10:23:56;;;;;;;7.60;2.05;;;;;;;26.06;24.69;96027.19;4928384;28;20031;-32
2022/04/05 10:26:43;;;;;;;6.28;1.75;;;;;;;26.05;24.84;96022.03;4924277;28;20376;-30
2022/04/05 10:29:10;;;;;;;5.18;2.30;;;;;;;26.04;24.84;96028.19;4918208;28;20105;-32
2022/04/05 10:31:44;;;;;;;3.38;1.80;;;;;;;26.04;24.71;96033.44;4918141;28;20035;-30
2022/04/05 10:34:14;;;;;;;3.88;1.88;;;;;;;26.04;24.77;96028.19;4917771;28;20042;-31
2022/04/05 10:36:41;;;;;;;4.95;1.70;;;;;;;26.04;24.88;96023.81;4937814;28;20031;-30
2022/04/05 10:39:22;;;;;;;4.70;1.80;;;;;;;26.05;24.91;96022.03;4929009;28;20502;-29
2022/04/05 10:42:25;;;;;;;3.93;1.90;;;;;;;26.06;25.01;96027.19;4926657;28;20042;-31
2022/04/05 10:45:08;;;;;;;7.03;1.85;;;;;;;26.07;24.98;96020.97;4944598;28;20393;-29
2022/04/05 10:47:33;;;;;;;3.00;1.77;;;;;;;26.08;25.19;96020.03;4924127;28;20047;-33
2022/04/05 10:50:00;;;;;;;2.25;1.50;;;;;;;26.11;25.26;96016.34;4922951;28;21956;-33
2022/04/05 10:52:31;;;;;;;5.75;1.67;;;;;;;26.12;25.36;96010.16;4918597;28;20031;-31
2022/04/05 10:55:02;;;;;;;3.83;1.63;;;;;;;26.14;25.44;96012.69;4926869;28;20070;-32
2022/04/05 10:57:31;;;;;;;3.05;1.40;;;;;;;26.15;25.46;96014.34;4924883;28;20027;-32
2022/04/05 11:00:19;;;;;;;5.00;1.90;;;;;;;26.16;25.66;96009.00;4921903;28;20189;-30
2022/04/05 11:03:01;;;;;;;4.63;1.55;;;;;;;26.18;25.77;96014.16;4932240;28;20039;-30
2022/04/05 11:05:35;;;;;;;2.72;1.60;;;;;;;26.20;25.75;96013.09;4919467;28;20039;-29
2022/04/05 11:08:02;;;;;;;3.85;1.67;;;;;;;26.22;25.81;96026.16;4924754;28;20027;-32
2022/04/05 11:10:29;;;;;;;3.45;1.83;;;;;;;26.23;26.01;96019.94;4930746;28;20482;-33
2022/04/05 11:13:05;;;;;;;3.83;1.60;;;;;;;26.25;26.13;96025.94;4922530;28;20035;-33
2022/04/05 11:15:45;;;;;;;3.47;1.33;;;;;;;26.26;26.04;96019.78;4917463;28;20155;-34
2022/04/05 11:18:18;;;;;;;2.25;1.48;;;;;;;26.27;26.16;96012.75;4926383;28;20044;-32
2022/04/05 11:20:44;;;;;;;4.45;1.55;;;;;;;26.28;26.36;96019.69;4927956;28;20659;-30
2022/04/05 11:23:10;;;;;;;2.47;1.50;;;;;;;26.29;26.35;96016.94;4930937;28;20034;-31
2022/04/05 11:25:35;;;;;;;3.30;1.63;;;;;;;26.31;26.44;96019.47;4930279;28;20524;-30
2022/04/05 11:28:10;;;;;;;4.47;1.80;;;;;;;26.32;26.66;96018.53;4930226;28;20035;-32
2022/04/05 11:30:37;;;;;;;2.95;1.40;;;;;;;26.33;26.60;96018.44;4928194;28;20042;-31
2022/04/05 11:33:15;;;;;;;5.10;1.58;;;;;;;26.33;26.72;96015.81;4929331;28;20142;-30
2022/04/05 11:36:01;;;;;;;4.18;1.67;;;;;;;26.35;26.63;96021.78;4926924;28;20511;-31